createdAt,value
2018-03-25T00:00:40.100Z,5.90
2018-03-25T00:03:11.189Z,5.90
2018-03-25T00:05:38.795Z,5.90
2018-03-25T00:08:06.331Z,5.90
2018-03-25T00:10:35.752Z,6.00
2018-03-25T00:13:03.494Z,6.00
2018-03-25T00:15:31.973Z,5.90
2018-03-25T00:17:59.542Z,5.90
2018-03-25T00:20:29.700Z,5.90
2018-03-25T00:22:57.800Z,5.90
2018-03-25T00:25:26.130Z,5.90
2018-03-25T00:27:54.264Z,5.80
2018-03-25T00:30:21.820Z,5.80
2018-03-25T00:32:49.665Z,5.80
2018-03-25T00:35:17.533Z,5.70
2018-03-25T00:37:45.217Z,5.70
2018-03-25T00:40:13.478Z,5.70
2018-03-25T00:42:41.044Z,5.70
2018-03-25T00:45:10.371Z,5.70
2018-03-25T00:47:40.280Z,5.70
2018-03-25T00:50:07.803Z,5.70
2018-03-25T00:52:36.148Z,5.70
2018-03-25T00:55:04.020Z,5.60
2018-03-25T00:57:32.293Z,5.60
2018-03-25T01:00:00.332Z,5.60
2018-03-25T01:02:29.858Z,5.60
2018-03-25T01:04:58.923Z,5.40
2018-03-25T01:07:26.476Z,5.40
2018-03-25T01:09:54.724Z,5.50
2018-03-25T01:12:22.406Z,5.50
2018-03-25T01:14:49.938Z,5.50
2018-03-25T01:17:18.873Z,5.60
2018-03-25T01:19:46.386Z,5.60
2018-03-25T01:22:13.995Z,5.60
2018-03-25T01:24:41.554Z,5.60
2018-03-25T01:27:09.065Z,5.60
2018-03-25T01:29:36.632Z,5.60
2018-03-25T01:32:05.417Z,5.60
2018-03-25T01:34:33.127Z,5.60
2018-03-25T01:37:01.295Z,5.60
2018-03-25T01:39:29.759Z,5.60
2018-03-25T01:41:57.308Z,5.50
2018-03-25T01:44:26.512Z,5.50
2018-03-25T01:46:54.036Z,5.50
2018-03-25T01:49:21.557Z,5.50
2018-03-25T01:51:49.160Z,5.60
2018-03-25T01:54:17.513Z,5.50
2018-03-25T01:56:45.770Z,5.50
2018-03-25T01:59:14.017Z,5.50
2018-03-25T02:01:41.561Z,5.50
2018-03-25T02:04:09.870Z,5.60
2018-03-25T02:06:37.459Z,5.60
2018-03-25T02:09:05.776Z,5.60
2018-03-25T02:11:33.940Z,5.60
2018-03-25T02:14:01.520Z,5.60
2018-03-25T02:16:30.677Z,5.70
2018-03-25T02:18:58.227Z,5.60
2018-03-25T02:21:27.168Z,5.60
2018-03-25T02:23:55.319Z,5.60
2018-03-25T02:26:22.896Z,5.60
2018-03-25T02:28:51.148Z,5.60
2018-03-25T02:31:19.340Z,5.60
2018-03-25T02:33:46.872Z,5.60
2018-03-25T02:36:15.189Z,5.70
2018-03-25T02:38:44.309Z,5.60
2018-03-25T02:41:12.568Z,5.60
2018-03-25T02:43:40.876Z,5.60
2018-03-25T02:46:08.509Z,5.50
2018-03-25T02:48:36.035Z,5.60
2018-03-25T02:51:05.273Z,5.60
2018-03-25T02:53:33.372Z,5.60
2018-03-25T02:56:00.931Z,5.50
2018-03-25T02:58:29.600Z,5.50
2018-03-25T03:00:57.231Z,5.50
2018-03-25T03:03:26.460Z,5.40
2018-03-25T03:05:54.637Z,5.40
2018-03-25T03:08:22.273Z,5.40
2018-03-25T03:10:49.824Z,5.40
2018-03-25T03:13:18.371Z,5.30
2018-03-25T03:15:46.818Z,5.30
2018-03-25T03:18:14.670Z,5.30
2018-03-25T03:20:43.536Z,5.30
2018-03-25T03:23:11.073Z,5.30
2018-03-25T03:25:38.675Z,5.30
2018-03-25T03:28:07.781Z,5.40
2018-03-25T03:30:36.224Z,5.30
2018-03-25T03:33:04.933Z,5.30
2018-03-25T03:35:34.071Z,5.30
2018-03-25T03:38:01.727Z,5.30
2018-03-25T03:40:31.087Z,5.30
2018-03-25T03:42:58.671Z,5.30
2018-03-25T03:45:27.099Z,5.30
2018-03-25T03:47:55.177Z,5.20
2018-03-25T03:50:22.750Z,5.30
2018-03-25T03:52:50.298Z,5.30
2018-03-25T03:55:18.104Z,5.20
2018-03-25T03:57:47.649Z,5.20
2018-03-25T04:00:15.839Z,5.20
2018-03-25T04:02:43.407Z,5.10
2018-03-25T04:05:11.080Z,5.10
2018-03-25T04:07:38.779Z,5.10
2018-03-25T04:10:06.350Z,5.10
2018-03-25T04:12:33.960Z,5.10
2018-03-25T04:15:01.475Z,5.00
2018-03-25T04:17:29.685Z,5.00
2018-03-25T04:19:57.244Z,5.10
2018-03-25T04:22:26.785Z,5.10
2018-03-25T04:24:54.340Z,5.10
2018-03-25T04:27:22.646Z,5.00
2018-03-25T04:29:50.178Z,5.00
2018-03-25T04:32:18.527Z,5.00
2018-03-25T04:34:46.104Z,4.90
2018-03-25T04:37:13.850Z,4.80
2018-03-25T04:39:41.468Z,4.80
2018-03-25T04:42:09.060Z,4.80
2018-03-25T04:44:36.613Z,4.90
2018-03-25T04:47:04.950Z,4.80
2018-03-25T04:49:33.284Z,4.90
2018-03-25T04:52:00.799Z,4.80
2018-03-25T04:54:28.383Z,4.90
2018-03-25T04:56:55.989Z,4.90
2018-03-25T04:59:23.559Z,4.90
2018-03-25T05:01:51.144Z,4.90
2018-03-25T05:04:19.343Z,4.90
2018-03-25T05:06:48.515Z,4.80
2018-03-25T05:09:16.880Z,4.90
2018-03-25T05:11:45.987Z,4.90
2018-03-25T05:14:13.551Z,4.90
2018-03-25T05:16:41.276Z,4.90
2018-03-25T05:19:09.817Z,4.90
2018-03-25T05:21:37.371Z,4.90
2018-03-25T05:24:05.437Z,5.00
2018-03-25T05:26:33.824Z,5.00
2018-03-25T05:29:01.463Z,5.00
2018-03-25T05:31:29.037Z,5.00
2018-03-25T05:33:56.551Z,5.00
2018-03-25T05:36:24.337Z,5.00
2018-03-25T05:38:51.891Z,5.00
2018-03-25T05:41:20.191Z,5.00
2018-03-25T05:43:47.760Z,5.00
2018-03-25T05:46:16.119Z,5.10
2018-03-25T05:48:44.516Z,5.10
2018-03-25T05:51:12.090Z,5.10
2018-03-25T05:53:39.745Z,5.20
2018-03-25T05:56:07.420Z,5.10
2018-03-25T05:58:35.486Z,5.10
2018-03-25T06:01:03.079Z,5.20
2018-03-25T06:03:31.322Z,5.20
2018-03-25T06:06:00.164Z,5.10
2018-03-25T06:08:29.072Z,5.10
2018-03-25T06:10:58.153Z,5.10
2018-03-25T06:13:26.536Z,5.10
2018-03-25T06:15:55.489Z,5.10
2018-03-25T06:18:22.999Z,5.10
2018-03-25T06:20:50.519Z,5.10
2018-03-25T06:23:18.079Z,5.20
2018-03-25T06:25:46.392Z,5.20
2018-03-25T06:28:15.290Z,5.20
2018-03-25T06:30:42.865Z,5.10
2018-03-25T06:33:10.482Z,5.10
2018-03-25T06:35:38.010Z,5.20
2018-03-25T06:38:07.340Z,5.30
2018-03-25T06:40:35.544Z,5.30
2018-03-25T06:43:04.329Z,5.40
2018-03-25T06:45:31.867Z,5.40
2018-03-25T06:48:01.036Z,5.40
2018-03-25T06:50:30.245Z,5.30
2018-03-25T06:52:57.786Z,5.40
2018-03-25T06:55:26.152Z,5.30
2018-03-25T06:57:54.365Z,5.30
2018-03-25T07:00:21.927Z,5.40
2018-03-25T07:02:50.563Z,5.50
2018-03-25T07:05:18.856Z,5.50
2018-03-25T07:07:47.478Z,5.50
2018-03-25T07:10:15.947Z,5.50
2018-03-25T07:12:43.506Z,5.50
2018-03-25T07:15:11.075Z,5.70
2018-03-25T07:17:39.531Z,5.70
2018-03-25T07:20:07.059Z,5.80
2018-03-25T07:22:35.434Z,5.80
2018-03-25T07:25:04.055Z,5.80
2018-03-25T07:27:31.778Z,5.80
2018-03-25T07:29:59.468Z,5.90
2018-03-25T07:32:27.232Z,5.90
2018-03-25T07:34:55.442Z,5.90
2018-03-25T07:37:23.105Z,5.90
2018-03-25T07:39:50.661Z,5.90
2018-03-25T07:42:18.343Z,5.90
2018-03-25T07:44:46.723Z,6.00
2018-03-25T07:47:14.610Z,6.00
2018-03-25T07:49:42.275Z,6.00
2018-03-25T07:52:10.562Z,6.00
2018-03-25T07:54:38.595Z,6.00
2018-03-25T07:57:06.184Z,6.10
2018-03-25T07:59:35.662Z,6.00
2018-03-25T08:02:03.186Z,6.10
2018-03-25T08:04:30.743Z,6.20
2018-03-25T08:07:00.339Z,6.20
2018-03-25T08:09:27.940Z,6.30
2018-03-25T08:11:55.546Z,6.30
2018-03-25T08:14:24.044Z,6.40
2018-03-25T08:16:51.710Z,6.40
2018-03-25T08:19:19.254Z,6.40
2018-03-25T08:21:47.800Z,6.50
2018-03-25T08:24:16.211Z,6.60
2018-03-25T08:26:43.892Z,6.70
2018-03-25T08:29:12.034Z,6.70
2018-03-25T08:31:40.353Z,6.70
2018-03-25T08:34:07.987Z,6.80
2018-03-25T08:36:37.155Z,6.70
2018-03-25T08:39:05.719Z,6.90
2018-03-25T08:41:33.264Z,6.90
2018-03-25T08:44:01.283Z,7.00
2018-03-25T08:46:30.433Z,7.10
2018-03-25T08:48:57.990Z,7.10
2018-03-25T08:51:27.272Z,7.10
2018-03-25T08:53:55.458Z,7.20
2018-03-25T08:56:23.015Z,7.20
2018-03-25T08:58:51.133Z,7.20
2018-03-25T09:01:18.733Z,7.20
2018-03-25T09:03:46.507Z,7.20
2018-03-25T09:06:14.034Z,7.20
2018-03-25T09:08:42.375Z,7.00
2018-03-25T09:11:10.642Z,7.00
2018-03-25T09:13:38.185Z,7.20
2018-03-25T09:16:05.761Z,7.30
2018-03-25T09:18:34.335Z,7.30
2018-03-25T09:21:01.902Z,7.40
2018-03-25T09:23:30.196Z,7.60
2018-03-25T09:25:57.830Z,7.70
2018-03-25T09:28:26.684Z,7.80
2018-03-25T09:30:55.362Z,7.80
2018-03-25T09:33:23.910Z,7.90
2018-03-25T09:35:51.479Z,7.80
2018-03-25T09:38:19.037Z,8.00
2018-03-25T09:40:46.578Z,8.00
2018-03-25T09:43:14.137Z,8.00
2018-03-25T09:45:41.887Z,8.00
2018-03-25T09:48:10.299Z,8.00
2018-03-25T09:50:37.831Z,8.10
2018-03-25T09:53:06.252Z,8.10
2018-03-25T09:55:36.019Z,8.10
2018-03-25T09:58:03.862Z,8.20
2018-03-25T10:00:36.466Z,8.20
2018-03-25T10:03:09.593Z,8.40
2018-03-25T10:05:37.118Z,8.40
2018-03-25T10:08:05.270Z,8.50
2018-03-25T10:10:32.814Z,8.40
2018-03-25T10:13:00.341Z,8.40
2018-03-25T10:15:28.673Z,8.40
2018-03-25T10:17:56.232Z,8.40
2018-03-25T10:20:24.306Z,8.40
2018-03-25T10:22:51.860Z,8.40
2018-03-25T10:25:21.937Z,8.40
2018-03-25T10:27:49.497Z,8.50
2018-03-25T10:30:18.581Z,8.50
2018-03-25T10:32:46.132Z,8.50
2018-03-25T10:35:13.939Z,8.50
2018-03-25T10:37:42.282Z,8.50
2018-03-25T10:40:09.849Z,8.50
2018-03-25T10:42:37.449Z,8.60
2018-03-25T10:45:06.573Z,8.70
2018-03-25T10:47:34.203Z,8.70
2018-03-25T10:50:01.748Z,8.70
2018-03-25T10:52:30.986Z,8.80
2018-03-25T10:54:58.592Z,8.70
2018-03-25T10:57:27.148Z,8.90
2018-03-25T10:59:55.488Z,8.90
2018-03-25T11:02:23.040Z,8.90
2018-03-25T11:04:51.365Z,8.90
2018-03-25T11:07:18.904Z,9.00
2018-03-25T11:09:46.451Z,9.00
2018-03-25T11:12:14.014Z,9.10
2018-03-25T11:14:42.099Z,9.20
2018-03-25T11:17:09.682Z,9.20
2018-03-25T11:19:37.255Z,9.00
2018-03-25T11:22:05.327Z,9.10
2018-03-25T11:24:32.876Z,9.20
2018-03-25T11:27:00.447Z,9.10
2018-03-25T11:29:28.013Z,9.10
2018-03-25T11:31:57.198Z,9.10
2018-03-25T11:34:25.374Z,9.10
2018-03-25T11:36:52.922Z,9.20
2018-03-25T11:39:21.189Z,9.10
2018-03-25T11:41:48.722Z,9.10
2018-03-25T11:44:16.254Z,9.10
2018-03-25T11:46:43.968Z,9.10
2018-03-25T11:49:11.510Z,9.10
2018-03-25T11:51:39.037Z,9.00
2018-03-25T11:54:07.383Z,9.00
2018-03-25T11:56:34.927Z,8.90
2018-03-25T11:59:02.490Z,9.00
2018-03-25T12:01:30.071Z,9.00
2018-03-25T12:03:58.641Z,9.10
2018-03-25T12:06:28.153Z,9.20
2018-03-25T12:08:56.586Z,9.20
2018-03-25T12:11:24.147Z,9.20
2018-03-25T12:13:52.438Z,9.20
2018-03-25T12:16:19.982Z,9.30
2018-03-25T12:18:48.350Z,9.30
2018-03-25T12:21:16.732Z,9.30
2018-03-25T12:23:45.474Z,9.30
2018-03-25T12:26:13.507Z,9.30
2018-03-25T12:28:41.036Z,9.40
2018-03-25T12:31:09.391Z,9.40
2018-03-25T12:33:36.967Z,9.50
2018-03-25T12:36:05.081Z,9.50
2018-03-25T12:38:33.548Z,9.40
2018-03-25T12:41:01.162Z,9.40
2018-03-25T12:43:29.296Z,9.40
2018-03-25T12:45:56.815Z,9.30
2018-03-25T12:48:24.371Z,9.20
2018-03-25T12:50:52.677Z,9.40
2018-03-25T12:53:20.580Z,9.30
2018-03-25T12:55:48.142Z,9.50
2018-03-25T12:58:17.068Z,9.70
2018-03-25T13:00:45.172Z,9.70
2018-03-25T13:03:14.634Z,9.80
2018-03-25T13:05:42.191Z,9.80
2018-03-25T13:08:09.810Z,9.90
2018-03-25T13:10:37.369Z,9.70
2018-03-25T13:13:06.031Z,9.70
2018-03-25T13:15:33.746Z,9.60
2018-03-25T13:18:01.322Z,9.60
2018-03-25T13:20:30.550Z,9.60
2018-03-25T13:22:58.899Z,9.80
2018-03-25T13:25:26.467Z,9.80
2018-03-25T13:27:54.056Z,9.60
2018-03-25T13:30:21.612Z,9.60
2018-03-25T13:32:50.843Z,9.70
2018-03-25T13:35:18.378Z,9.70
2018-03-25T13:37:45.933Z,9.80
2018-03-25T13:40:14.163Z,9.80
2018-03-25T13:42:41.722Z,9.80
2018-03-25T13:45:09.260Z,9.90
2018-03-25T13:47:36.869Z,9.90
2018-03-25T13:50:05.266Z,9.90
2018-03-25T13:52:32.842Z,9.90
2018-03-25T13:55:00.475Z,9.90
2018-03-25T13:57:28.003Z,9.90
2018-03-25T13:59:56.400Z,9.80
2018-03-25T14:02:23.926Z,9.80
2018-03-25T14:04:51.448Z,9.90
2018-03-25T14:07:19.617Z,9.90
2018-03-25T14:09:48.043Z,9.90
2018-03-25T14:12:15.577Z,9.80
2018-03-25T14:14:43.168Z,9.80
2018-03-25T14:17:10.717Z,9.80
2018-03-25T14:19:38.263Z,9.90
2018-03-25T14:22:05.833Z,9.90
2018-03-25T14:24:33.356Z,9.90
2018-03-25T14:27:01.461Z,9.90
2018-03-25T14:29:29.084Z,10.00
2018-03-25T14:31:56.686Z,10.00
2018-03-25T14:34:24.215Z,10.00
2018-03-25T14:36:51.783Z,10.00
2018-03-25T14:39:19.343Z,10.00
2018-03-25T14:41:47.718Z,10.10
2018-03-25T14:44:16.931Z,10.10
2018-03-25T14:46:44.510Z,10.10
2018-03-25T14:49:12.564Z,10.20
2018-03-25T14:51:40.201Z,10.20
2018-03-25T14:54:07.823Z,10.00
2018-03-25T14:56:35.858Z,10.00
2018-03-25T14:59:03.432Z,10.00
2018-03-25T15:01:30.970Z,10.10
2018-03-25T15:03:58.530Z,10.00
2018-03-25T15:06:26.072Z,10.00
2018-03-25T15:08:55.088Z,10.00
2018-03-25T15:11:22.650Z,10.00
2018-03-25T15:13:50.228Z,10.00
2018-03-25T15:16:17.784Z,10.10
2018-03-25T15:18:45.369Z,10.20
2018-03-25T15:21:12.918Z,10.20
2018-03-25T15:23:40.474Z,10.20
2018-03-25T15:26:08.028Z,10.10
2018-03-25T15:28:36.564Z,10.20
2018-03-25T15:31:04.149Z,10.20
2018-03-25T15:33:31.804Z,10.20
2018-03-25T15:36:00.178Z,10.20
2018-03-25T15:38:29.222Z,10.20
2018-03-25T15:40:56.762Z,10.10
2018-03-25T15:43:24.678Z,10.10
2018-03-25T15:45:52.221Z,10.00
2018-03-25T15:48:19.963Z,10.00
2018-03-25T15:50:49.731Z,9.90
2018-03-25T15:53:18.046Z,10.00
2018-03-25T15:55:46.875Z,9.90
2018-03-25T15:58:14.919Z,9.80
2018-03-25T16:00:44.255Z,9.90
2018-03-25T16:03:12.822Z,10.00
2018-03-25T16:05:41.222Z,9.90
2018-03-25T16:08:09.198Z,9.90
2018-03-25T16:10:37.499Z,9.90
2018-03-25T16:13:05.069Z,9.90
2018-03-25T16:15:34.232Z,9.90
2018-03-25T16:18:02.039Z,9.80
2018-03-25T16:20:31.292Z,9.90
2018-03-25T16:22:58.812Z,9.90
2018-03-25T16:25:26.344Z,9.90
2018-03-25T16:27:55.928Z,9.90
2018-03-25T16:30:23.596Z,9.90
2018-03-25T16:32:51.150Z,9.80
2018-03-25T16:35:23.155Z,9.70
2018-03-25T16:37:50.779Z,9.70
2018-03-25T16:40:19.198Z,9.60
2018-03-25T16:42:46.899Z,9.40
2018-03-25T16:45:15.942Z,9.40
2018-03-25T16:47:43.566Z,9.20
2018-03-25T16:50:11.111Z,9.10
2018-03-25T16:52:40.471Z,9.00
2018-03-25T16:55:08.032Z,9.00
2018-03-25T16:57:36.469Z,9.00
2018-03-25T17:00:05.455Z,8.80
2018-03-25T17:02:33.052Z,8.80
2018-03-25T17:05:00.586Z,8.70
2018-03-25T17:07:28.135Z,8.70
2018-03-25T17:09:56.482Z,8.70
2018-03-25T17:12:24.443Z,8.60
2018-03-25T17:14:51.967Z,8.70
2018-03-25T17:17:19.519Z,8.60
2018-03-25T17:19:48.034Z,8.50
2018-03-25T17:22:16.504Z,8.50
2018-03-25T17:24:44.405Z,8.50
2018-03-25T17:27:12.984Z,8.40
2018-03-25T17:29:40.442Z,8.40
2018-03-25T17:32:08.006Z,8.40
2018-03-25T17:34:36.457Z,8.40
2018-03-25T17:37:03.985Z,8.30
2018-03-25T17:39:32.273Z,8.30
2018-03-25T17:42:00.914Z,8.20
2018-03-25T17:44:28.869Z,8.20
2018-03-25T17:46:56.584Z,8.20
2018-03-25T17:49:24.896Z,8.20
2018-03-25T17:51:52.445Z,8.20
2018-03-25T17:54:19.960Z,8.20
2018-03-25T17:56:48.097Z,8.20
2018-03-25T17:59:16.311Z,8.20
2018-03-25T18:01:43.835Z,8.20
2018-03-25T18:04:11.423Z,8.20
2018-03-25T18:06:38.991Z,8.10
2018-03-25T18:09:07.325Z,8.00
2018-03-25T18:11:35.340Z,8.00
2018-03-25T18:14:03.212Z,8.00
2018-03-25T18:16:31.913Z,8.00
2018-03-25T18:18:59.444Z,7.90
2018-03-25T18:21:26.982Z,7.90
2018-03-25T18:23:54.991Z,7.90
2018-03-25T18:26:22.560Z,7.80
2018-03-25T18:28:50.846Z,7.80
2018-03-25T18:31:19.130Z,7.80
2018-03-25T18:36:20.614Z,7.70
2018-03-25T18:38:48.238Z,7.70
2018-03-25T18:41:15.751Z,7.70
2018-03-25T18:43:43.271Z,7.70
2018-03-25T18:46:11.065Z,7.70
2018-03-25T18:48:38.592Z,7.60
2018-03-25T18:51:06.889Z,7.60
2018-03-25T18:53:35.303Z,7.60
2018-03-25T18:56:02.902Z,7.60
2018-03-25T18:58:31.273Z,7.50
2018-03-25T19:00:59.616Z,7.50
2018-03-25T19:03:27.147Z,7.50
2018-03-25T19:05:55.238Z,7.50
2018-03-25T19:08:22.771Z,7.50
2018-03-25T19:10:50.291Z,7.50
2018-03-25T19:13:17.866Z,7.50
2018-03-25T19:15:45.507Z,7.50
2018-03-25T19:18:13.234Z,7.50
2018-03-25T19:20:40.788Z,7.40
2018-03-25T19:23:08.545Z,7.50
2018-03-25T19:25:36.070Z,7.40
2018-03-25T19:28:05.442Z,7.40
2018-03-25T19:30:33.136Z,7.40
2018-03-25T19:33:00.683Z,7.30
2018-03-25T19:35:28.522Z,7.30
2018-03-25T19:37:56.084Z,7.30
2018-03-25T19:40:23.924Z,7.30
2018-03-25T19:42:51.739Z,7.30
2018-03-25T19:45:19.263Z,7.30
2018-03-25T19:47:46.794Z,7.30
2018-03-25T19:50:14.460Z,7.30
2018-03-25T19:52:42.010Z,7.20
2018-03-25T19:55:10.064Z,7.20
2018-03-25T19:57:37.693Z,7.20
2018-03-25T20:00:06.101Z,7.20
2018-03-25T20:02:34.576Z,7.10
2018-03-25T20:05:02.142Z,7.10
2018-03-25T20:07:29.702Z,7.10
2018-03-25T20:09:57.265Z,7.10
2018-03-25T20:12:27.438Z,7.10
2018-03-25T20:14:55.041Z,7.10
2018-03-25T20:17:22.578Z,7.10
2018-03-25T20:19:50.135Z,7.10
2018-03-25T20:22:17.775Z,7.00
2018-03-25T20:24:46.155Z,7.00
2018-03-25T20:27:13.918Z,7.00
2018-03-25T20:29:41.465Z,7.00
2018-03-25T20:32:09.009Z,7.00
2018-03-25T20:34:37.319Z,7.00
2018-03-25T20:37:05.569Z,7.00
2018-03-25T20:39:33.117Z,7.00
2018-03-25T20:42:01.420Z,7.00
2018-03-25T20:44:31.470Z,7.00
2018-03-25T20:46:59.020Z,6.90
2018-03-25T20:49:26.580Z,7.00
2018-03-25T20:51:55.808Z,6.90
2018-03-25T20:54:23.362Z,6.90
2018-03-25T20:56:50.916Z,6.90
2018-03-25T20:59:20.122Z,6.90
2018-03-25T21:01:49.197Z,6.90
2018-03-25T21:04:16.769Z,6.90
2018-03-25T21:06:45.964Z,6.90
2018-03-25T21:09:13.546Z,6.90
2018-03-25T21:11:41.109Z,6.90
2018-03-25T21:14:09.387Z,6.90
2018-03-25T21:16:37.022Z,6.80
2018-03-25T21:19:05.238Z,6.80
2018-03-25T21:21:33.551Z,6.70
2018-03-25T21:24:01.090Z,6.70
2018-03-25T21:26:31.220Z,6.70
2018-03-25T21:28:58.752Z,6.80
2018-03-25T21:31:26.290Z,6.70
2018-03-25T21:33:53.920Z,6.70
2018-03-25T21:36:21.504Z,6.70
2018-03-25T21:38:48.999Z,6.70
2018-03-25T21:41:16.571Z,6.70
2018-03-25T21:43:44.149Z,6.70
2018-03-25T21:46:12.438Z,6.70
2018-03-25T21:48:40.029Z,6.70
2018-03-25T21:51:07.573Z,6.70
2018-03-25T21:53:35.889Z,6.60
2018-03-25T21:56:04.796Z,6.60
2018-03-25T21:58:32.337Z,6.60
2018-03-25T22:00:59.953Z,6.60
2018-03-25T22:03:28.056Z,6.60
2018-03-25T22:05:56.457Z,6.60
2018-03-25T22:08:25.280Z,6.60
2018-03-25T22:10:54.058Z,6.60
2018-03-25T22:13:21.566Z,6.60
2018-03-25T22:15:49.103Z,6.60
2018-03-25T22:18:17.167Z,6.60
2018-03-25T22:20:45.312Z,6.60
2018-03-25T22:23:12.835Z,6.60
2018-03-25T22:25:40.389Z,6.60
2018-03-25T22:28:07.919Z,6.60
2018-03-25T22:30:36.358Z,6.60
2018-03-25T22:33:05.594Z,6.60
2018-03-25T22:35:33.147Z,6.60
2018-03-25T22:38:00.666Z,6.60
2018-03-25T22:40:29.645Z,6.70
2018-03-25T22:42:57.168Z,6.60
2018-03-25T22:45:25.303Z,6.70
2018-03-25T22:47:54.228Z,6.60
2018-03-25T22:50:21.743Z,6.60
2018-03-25T22:52:50.074Z,6.60
2018-03-25T22:55:17.603Z,6.60
2018-03-25T22:57:45.857Z,6.70
2018-03-25T23:00:13.418Z,6.70
2018-03-25T23:02:41.750Z,6.60
2018-03-25T23:05:09.298Z,6.60
2018-03-25T23:07:37.742Z,6.60
2018-03-25T23:10:06.242Z,6.60
2018-03-25T23:12:34.042Z,6.50
2018-03-25T23:15:02.004Z,6.50
2018-03-25T23:17:29.555Z,6.50
2018-03-25T23:19:57.112Z,6.50
2018-03-25T23:22:26.139Z,6.50
2018-03-25T23:24:54.299Z,6.50
2018-03-25T23:27:22.671Z,6.40
2018-03-25T23:29:50.201Z,6.40
2018-03-25T23:32:17.745Z,6.40
2018-03-25T23:34:46.058Z,6.40
2018-03-25T23:37:13.865Z,6.40
2018-03-25T23:39:41.422Z,6.40
2018-03-25T23:42:10.478Z,6.30
2018-03-25T23:44:38.033Z,6.30
2018-03-25T23:47:06.346Z,6.30
2018-03-25T23:49:34.684Z,6.30
2018-03-25T23:52:02.220Z,6.20
2018-03-25T23:54:31.227Z,6.20
2018-03-25T23:56:58.811Z,6.20
2018-03-25T23:59:26.483Z,6.20
